San Diego, California
Traffic Map
Current Weather Conditions
San Diego, California
Few Clouds
Few Clouds
72°
Feels Like: 72°
Wind Chill: 72° Ceiling: Unl
Heat Index: 72° Visibility: 9mi
Dew Point: 63° Wind: 10mph
Humidity: 73% Direction: 300° (WNW)
Pressure: 29.99in Gusts: 0mph
Raw Report DataKSAN 231751Z 30009KT 9SM FEW010 22/17 A2999 RMK AO2 SLP154 T02220172 10228 20194 50005
Traffic Incident Summary
Active as of:
Severity:
Category:
InformationThere was an issue retrieving the traffic information for this location. Please try a different location or try again shortly.
Advertisements
Track Severe Weather on mobile